Time;durP1;ratioP1;P1;durP2;ratioP2;P2;SDS_P1;SDS_P2;PMS_P1;PMS_P2;Temp;Humidity;BMP_temperature;BMP_pressure;BME280_temperature;BME280_humidity;BME280_pressure;Samples;Min_cycle;Max_cycle;Signal;HPM_P1;HPM_P2
2023/12/09 00:00:50;;;;;;;31.00;6.65;;;;;;;-146.27;90.35;33029.47;5103813;28;20462;-69
2023/12/09 00:03:15;;;;;;;33.30;7.97;;;;;;;-146.27;90.83;33079.09;5108528;28;20490;-69
2023/12/09 00:05:41;;;;;;;31.50;7.63;;;;;;;-146.27;90.88;33071.16;5101355;28;20361;-69
2023/12/09 00:08:06;;;;;;;41.90;7.80;;;;;;;-146.27;91.56;33094.97;5077402;28;20023;-68
2023/12/09 00:10:31;;;;;;;29.15;6.50;;;;;;;-146.27;90.54;32973.94;5093346;28;20027;-69
2023/12/09 00:12:57;;;;;;;29.92;7.78;;;;;;;-146.27;91.09;33122.72;5089891;28;20069;-69
2023/12/09 00:15:22;;;;;;;28.27;6.93;;;;;;;-146.27;90.56;33045.34;5090783;28;20023;-68
2023/12/09 00:17:48;;;;;;;30.25;7.93;;;;;;;-146.27;89.85;32973.94;5107618;28;20028;-70
2023/12/09 00:20:13;;;;;;;45.78;7.53;;;;;;;-146.27;89.34;32973.94;5089914;28;20027;-69
2023/12/09 00:22:39;;;;;;;35.38;7.18;;;;;;;-146.27;89.37;32985.84;5094182;28;20027;-69
2023/12/09 00:25:06;;;;;;;30.10;7.78;;;;;;;-146.27;90.20;33043.38;5091904;28;20153;-69
2023/12/09 00:27:31;;;;;;;29.58;7.30;;;;;;;-146.27;89.82;32981.88;5086945;28;20020;-70
2023/12/09 00:29:57;;;;;;;30.30;7.40;;;;;;;-146.27;91.18;33140.59;5087653;28;20044;-69
2023/12/09 00:32:22;;;;;;;31.75;7.25;;;;;;;-146.27;91.39;33116.78;5090695;28;20073;-69
2023/12/09 00:34:47;;;;;;;37.10;8.48;;;;;;;-146.27;91.53;33061.22;5093137;28;20031;-69
2023/12/09 00:37:13;;;;;;;25.95;7.70;;;;;;;-146.27;91.75;33128.69;5103603;28;20458;-69
2023/12/09 00:39:38;;;;;;;32.33;8.27;;;;;;;-146.27;90.45;33033.44;5090089;28;20043;-69
2023/12/09 00:42:03;;;;;;;33.90;7.25;;;;;;;-146.27;90.37;33025.50;5098580;28;20020;-69
2023/12/09 00:44:29;;;;;;;29.75;6.38;;;;;;;-146.27;90.08;33053.28;5095979;28;20031;-69
2023/12/09 00:46:54;;;;;;;30.23;7.53;;;;;;;-146.27;91.07;33077.09;5085404;28;20024;-69
2023/12/09 00:49:20;;;;;;;27.73;6.25;;;;;;;-146.27;90.67;33049.31;5093500;28;20023;-69
2023/12/09 00:51:45;;;;;;;27.77;9.23;;;;;;;-146.27;90.48;33049.31;5093874;28;20051;-69
2023/12/09 00:54:10;;;;;;;37.42;6.95;;;;;;;-146.27;90.29;33102.88;5076420;28;20587;-69
2023/12/09 00:56:36;;;;;;;30.55;8.88;;;;;;;-146.27;91.79;33160.44;5093059;28;20028;-69
2023/12/09 00:59:02;;;;;;;34.55;6.43;;;;;;;-146.27;89.97;33007.66;5092108;28;20032;-70
2023/12/09 01:01:28;;;;;;;31.15;6.70;;;;;;;-146.27;89.72;33005.69;5089171;28;20556;-69
2023/12/09 01:03:53;;;;;;;34.00;6.53;;;;;;;-146.27;89.77;33059.25;5100251;28;20107;-70
2023/12/09 01:06:19;;;;;;;33.17;6.72;;;;;;;-146.27;88.94;33073.13;5099722;28;20100;-69
2023/12/09 01:08:44;;;;;;;30.00;6.18;;;;;;;-146.27;90.13;33144.56;5108102;28;20019;-69
2023/12/09 01:11:09;;;;;;;39.75;7.50;;;;;;;-146.27;90.13;33104.88;5084709;28;20051;-69
2023/12/09 01:13:35;;;;;;;29.33;6.40;;;;;;;-146.27;90.09;33138.59;5090771;28;20054;-69
2023/12/09 01:16:00;;;;;;;29.45;6.22;;;;;;;-146.27;90.43;33132.66;5091506;28;20054;-69
2023/12/09 01:18:25;;;;;;;27.10;5.93;;;;;;;-146.27;89.80;33102.88;5089515;28;20024;-68
2023/12/09 01:20:50;;;;;;;26.88;6.40;;;;;;;-146.27;89.61;33089.00;5090544;28;20117;-69
2023/12/09 01:23:16;;;;;;;25.65;7.00;;;;;;;-146.27;90.17;33140.59;5089477;28;20024;-69
2023/12/09 01:25:41;;;;;;;28.23;6.97;;;;;;;-146.27;90.72;33186.22;5090425;28;20115;-68
2023/12/09 01:28:07;;;;;;;32.35;5.85;;;;;;;-146.27;91.21;33255.66;5096722;28;20078;-69
2023/12/09 01:30:34;;;;;;;32.95;6.93;;;;;;;-146.27;90.64;33204.06;5092510;28;20056;-68
2023/12/09 01:32:59;;;;;;;34.25;7.03;;;;;;;-146.27;90.19;33168.38;5089234;28;20063;-69
2023/12/09 01:35:24;;;;;;;25.98;5.93;;;;;;;-146.27;90.21;33253.69;5090804;28;20028;-68
2023/12/09 01:37:50;;;;;;;32.65;6.38;;;;;;;-146.27;90.38;33176.31;5113319;28;20030;-68
2023/12/09 01:40:15;;;;;;;20.63;5.57;;;;;;;-146.27;90.64;33229.88;5095172;28;20243;-69
2023/12/09 01:42:42;;;;;;;24.00;6.18;;;;;;;-146.27;90.77;33180.28;5105705;28;20060;-69
2023/12/09 01:45:08;;;;;;;32.55;6.93;;;;;;;-146.27;89.69;33194.16;5097965;28;20109;-69
2023/12/09 01:47:35;;;;;;;21.70;6.00;;;;;;;-146.27;89.59;33176.31;5096751;28;20495;-69
2023/12/09 01:50:04;;;;;;;36.22;7.75;;;;;;;-146.27;89.73;33225.91;5096951;28;20027;-69
2023/12/09 01:52:31;;;;;;;25.10;6.07;;;;;;;-146.27;89.69;33204.06;5095456;28;20114;-70
2023/12/09 01:54:57;;;;;;;21.23;6.15;;;;;;;-146.27;89.38;33217.97;5093214;28;20028;-69
2023/12/09 01:57:22;;;;;;;32.45;6.07;;;;;;;-146.27;90.74;33269.56;5099295;28;20370;-70
2023/12/09 01:59:48;;;;;;;27.13;6.40;;;;;;;-146.27;90.33;33287.41;5099948;28;20051;-69
2023/12/09 02:02:13;;;;;;;31.55;6.43;;;;;;;-146.27;89.90;33235.81;5102694;28;20031;-68
2023/12/09 02:04:40;;;;;;;26.67;5.97;;;;;;;-146.27;89.72;33202.09;5092190;28;20028;-68
2023/12/09 02:07:05;;;;;;;30.85;6.47;;;;;;;-146.27;91.29;33346.94;5095880;28;20473;-68
2023/12/09 02:09:32;;;;;;;30.70;6.35;;;;;;;-146.27;90.52;33247.72;5113368;28;20012;-68
2023/12/09 02:12:14;;;;;;;32.15;6.70;;;;;;;-146.27;91.07;33269.56;5093902;28;20135;-70
2023/12/09 02:15:01;;;;;;;24.15;6.38;;;;;;;-146.27;91.41;33295.34;5100479;28;20031;-69
2023/12/09 02:17:38;;;;;;;24.50;5.57;;;;;;;-146.27;91.47;33342.97;5104457;28;20097;-69
2023/12/09 02:20:05;;;;;;;28.17;6.53;;;;;;;-146.27;91.10;33297.31;5100034;28;20076;-69
2023/12/09 02:22:30;;;;;;;38.80;7.18;;;;;;;-146.27;90.92;33281.47;5100988;28;20024;-69
2023/12/09 02:24:56;;;;;;;31.77;5.78;;;;;;;-146.27;89.99;33271.53;5092599;28;20044;-69
2023/12/09 02:27:29;;;;;;;27.88;5.53;;;;;;;-146.27;89.22;33279.47;5092978;28;20110;-70
2023/12/09 02:29:57;;;;;;;30.98;7.32;;;;;;;-146.27;89.71;33275.50;5093058;28;20415;-69
2023/12/09 02:32:25;;;;;;;26.33;5.72;;;;;;;-146.27;90.11;33307.25;5092992;28;20055;-69
2023/12/09 02:34:51;;;;;;;27.27;6.10;;;;;;;-146.27;89.88;33227.88;5104146;27;20039;-70
2023/12/09 02:37:19;;;;;;;25.60;5.78;;;;;;;-146.27;89.42;33259.63;5110991;27;20024;-69
2023/12/09 02:39:45;;;;;;;31.63;6.38;;;;;;;-146.27;89.62;33299.31;5092447;28;20104;-69
2023/12/09 02:42:11;;;;;;;25.60;5.68;;;;;;;-146.27;90.35;33335.03;5091534;28;20495;-70
2023/12/09 02:44:41;;;;;;;17.50;5.65;;;;;;;-146.27;90.15;33311.22;5091536;28;20031;-69
2023/12/09 02:47:10;;;;;;;25.38;5.30;;;;;;;-146.27;89.79;33275.50;5099664;28;20419;-69
2023/12/09 02:49:35;;;;;;;23.92;5.78;;;;;;;-146.27;89.22;33287.41;5096061;28;20031;-69
2023/12/09 02:52:01;;;;;;;26.10;6.03;;;;;;;-146.27;89.63;33311.22;5074395;28;20054;-69
2023/12/09 02:54:26;;;;;;;27.85;6.15;;;;;;;-146.27;89.10;33295.34;5091828;28;20472;-69
2023/12/09 02:56:51;;;;;;;21.95;5.10;;;;;;;-146.27;88.78;33275.50;5095560;28;20106;-69
2023/12/09 02:59:17;;;;;;;31.88;6.07;;;;;;;-146.27;88.64;33293.38;5096889;28;20395;-69
2023/12/09 03:01:42;;;;;;;34.95;5.40;;;;;;;-146.27;90.61;33390.59;5082744;28;20423;-69
2023/12/09 03:04:07;;;;;;;34.42;5.40;;;;;;;-146.27;90.57;33307.25;5091065;28;20016;-68
2023/12/09 03:06:33;;;;;;;21.48;5.65;;;;;;;-146.27;91.53;33406.47;5074079;28;20031;-69
2023/12/09 03:08:58;;;;;;;29.55;5.57;;;;;;;-146.27;90.61;33402.50;5095088;28;20027;-69
2023/12/09 03:11:23;;;;;;;34.75;5.72;;;;;;;-146.27;90.44;33307.25;5102353;28;20176;-69
2023/12/09 03:13:49;;;;;;;21.45;4.95;;;;;;;-146.27;91.15;33366.78;5096585;28;20403;-69
2023/12/09 03:16:14;;;;;;;15.43;4.70;;;;;;;-146.27;90.67;33313.19;5096575;28;20472;-70
2023/12/09 03:18:39;;;;;;;28.02;5.10;;;;;;;-146.27;89.43;33245.75;5091470;28;20463;-69
2023/12/09 03:21:05;;;;;;;19.70;4.70;;;;;;;-146.27;89.90;33295.34;5073362;28;20078;-69
2023/12/09 03:23:30;;;;;;;23.45;5.03;;;;;;;-146.27;90.77;33358.84;5074738;28;20024;-68
2023/12/09 03:25:55;;;;;;;21.58;4.82;;;;;;;-146.27;89.74;33279.47;5105043;28;20399;-69
2023/12/09 03:28:21;;;;;;;41.13;5.80;;;;;;;-146.27;89.52;33307.25;5083375;28;20954;-69
2023/12/09 03:30:46;;;;;;;18.35;3.50;;;;;;;-146.27;89.14;33243.75;5091859;28;20031;-69
2023/12/09 03:33:11;;;;;;;25.75;5.30;;;;;;;-146.27;88.86;33239.78;5109004;28;20391;-69
2023/12/09 03:35:37;;;;;;;23.77;4.80;;;;;;;-146.27;88.92;33301.28;5091169;28;20395;-69
2023/12/09 03:38:02;;;;;;;26.60;5.15;;;;;;;-146.27;89.61;33291.38;5110988;28;20448;-69
2023/12/09 03:40:27;;;;;;;27.45;5.07;;;;;;;-146.27;90.03;33358.84;5091658;28;20547;-69
2023/12/09 03:42:53;;;;;;;25.25;4.20;;;;;;;-146.27;88.69;33301.28;5092071;28;20700;-69
2023/12/09 03:45:18;;;;;;;23.92;4.75;;;;;;;-146.27;89.04;33311.22;5091075;28;20055;-68
2023/12/09 03:47:45;;;;;;;31.45;5.43;;;;;;;-146.27;88.13;33283.44;5091609;28;20438;-69
2023/12/09 03:50:10;;;;;;;18.80;4.22;;;;;;;-146.27;88.05;33215.97;5094066;28;20024;-70
2023/12/09 03:52:35;;;;;;;19.92;4.60;;;;;;;-146.27;87.57;33283.44;5086082;28;20032;-68
2023/12/09 03:55:01;;;;;;;28.23;6.13;;;;;;;-146.27;87.42;33261.63;5091524;28;20028;-67
2023/12/09 03:57:26;;;;;;;24.48;5.22;;;;;;;-146.27;87.44;33279.47;5106944;28;20032;-69
2023/12/09 03:59:51;;;;;;;29.77;5.35;;;;;;;-146.27;87.76;33283.44;5100644;28;20050;-69
2023/12/09 04:02:18;;;;;;;22.90;6.28;;;;;;;-146.27;87.49;33315.19;5105039;28;20031;-69
2023/12/09 04:04:43;;;;;;;24.80;6.78;;;;;;;-146.27;87.62;33305.25;5106569;28;20027;-69
2023/12/09 04:07:09;;;;;;;31.75;6.90;;;;;;;-146.27;87.86;33293.38;5094145;28;20016;-69
2023/12/09 04:09:34;;;;;;;27.98;5.70;;;;;;;-146.27;87.94;33303.28;5094457;28;20165;-69
2023/12/09 04:12:00;;;;;;;28.15;6.05;;;;;;;-146.27;87.96;33295.34;5103787;28;20016;-69
2023/12/09 04:14:26;;;;;;;20.48;5.97;;;;;;;-146.27;88.41;33311.22;5092912;28;20020;-69
2023/12/09 04:16:51;;;;;;;32.05;7.13;;;;;;;-146.27;89.31;33358.84;5104426;28;20042;-70
2023/12/09 04:19:16;;;;;;;21.83;5.90;;;;;;;-146.27;88.75;33354.88;5103743;28;20111;-69
2023/12/09 04:21:42;;;;;;;32.92;6.78;;;;;;;-146.27;88.67;33309.22;5095020;28;20468;-68
2023/12/09 04:24:07;;;;;;;21.33;6.55;;;;;;;-146.27;88.43;33317.16;5090059;28;20020;-68
2023/12/09 04:26:33;;;;;;;23.13;7.22;;;;;;;-146.27;89.05;33315.19;5090809;28;20051;-70
2023/12/09 04:28:58;;;;;;;26.60;6.53;;;;;;;-146.27;88.59;33323.13;5093249;28;20078;-69
2023/12/09 04:31:23;;;;;;;35.78;7.78;;;;;;;-146.27;88.61;33346.94;5101803;28;20077;-69
2023/12/09 04:33:49;;;;;;;24.08;8.15;;;;;;;-146.27;88.25;33307.25;5091228;28;20081;-69
2023/12/09 04:36:14;;;;;;;24.60;6.22;;;;;;;-146.27;88.62;33303.28;5091549;28;20036;-69
2023/12/09 04:38:40;;;;;;;32.15;7.30;;;;;;;-146.27;88.89;33323.13;5096709;28;20036;-68
2023/12/09 04:41:06;;;;;;;33.78;8.00;;;;;;;-146.27;89.02;33315.19;5090616;28;20073;-69
2023/12/09 04:43:32;;;;;;;26.08;7.70;;;;;;;-146.27;88.92;33251.69;5089997;28;20047;-69
2023/12/09 04:45:57;;;;;;;23.50;7.03;;;;;;;-146.27;88.40;33267.56;5090113;28;20028;-69
2023/12/09 04:48:22;;;;;;;31.92;7.22;;;;;;;-146.27;88.48;33289.41;5093146;28;20024;-69
2023/12/09 04:50:48;;;;;;;24.65;6.47;;;;;;;-146.27;88.58;33307.25;5095450;28;20032;-68
2023/12/09 04:53:13;;;;;;;29.50;7.18;;;;;;;-146.27;88.82;33346.94;5106577;28;20023;-69
2023/12/09 04:55:40;;;;;;;21.00;6.30;;;;;;;-146.27;88.67;33285.44;5106860;28;20408;-69
2023/12/09 04:58:05;;;;;;;35.35;6.82;;;;;;;-146.27;88.30;33267.56;5104994;28;20140;-69
2023/12/09 05:00:31;;;;;;;25.10;6.88;;;;;;;-146.27;88.56;33259.63;5100739;28;20117;-67
2023/12/09 05:02:56;;;;;;;22.85;6.63;;;;;;;-146.27;88.53;33283.44;5097268;28;20031;-68
2023/12/09 05:05:21;;;;;;;31.40;7.82;;;;;;;-146.27;88.48;33293.38;5093781;28;20098;-70
2023/12/09 05:07:46;;;;;;;30.73;6.95;;;;;;;-146.27;88.40;33259.63;5108842;28;20039;-71
2023/12/09 05:10:12;;;;;;;35.92;8.10;;;;;;;-146.27;88.74;33283.44;5101935;28;20050;-69
2023/12/09 05:12:40;;;;;;;27.08;7.40;;;;;;;-146.27;89.32;33339.00;5102944;28;20024;-69
2023/12/09 05:15:06;;;;;;;29.27;6.32;;;;;;;-146.27;89.00;33287.41;5093623;28;20062;-69
2023/12/09 05:17:32;;;;;;;22.92;6.40;;;;;;;-146.27;88.80;33279.47;5093308;28;20064;-69
2023/12/09 05:19:58;;;;;;;27.10;7.05;;;;;;;-146.27;88.83;33293.38;5075130;28;20031;-69
2023/12/09 05:22:24;;;;;;;32.08;7.03;;;;;;;-146.27;88.88;33295.34;5093866;28;20445;-69
2023/12/09 05:24:50;;;;;;;25.90;7.40;;;;;;;-146.27;88.80;33311.22;5105364;28;20032;-69
2023/12/09 05:27:16;;;;;;;23.52;7.03;;;;;;;-146.27;88.95;33241.78;5094261;28;20028;-69
2023/12/09 05:29:43;;;;;;;26.33;6.85;;;;;;;-146.27;88.90;33289.41;5093295;28;20048;-69
2023/12/09 05:32:08;;;;;;;30.58;7.20;;;;;;;-146.27;88.40;33283.44;5093776;28;20024;-69
2023/12/09 05:34:34;;;;;;;35.33;8.23;;;;;;;-146.27;88.27;33283.44;5107005;28;20054;-69
2023/12/09 05:36:59;;;;;;;26.85;7.88;;;;;;;-146.27;88.99;33327.09;5095997;28;20032;-69
2023/12/09 05:39:24;;;;;;;29.77;7.07;;;;;;;-146.27;88.75;33327.09;5093705;28;20043;-69
2023/12/09 05:41:50;;;;;;;28.90;8.27;;;;;;;-146.27;89.26;33325.09;5096556;28;20019;-67
2023/12/09 05:44:16;;;;;;;26.23;7.22;;;;;;;-146.27;88.77;33261.63;5104442;28;20027;-69
2023/12/09 05:46:41;;;;;;;24.90;7.80;;;;;;;-146.27;89.45;33342.97;5113866;28;20024;-69
2023/12/09 05:49:06;;;;;;;29.13;8.18;;;;;;;-146.27;90.13;33340.97;5108225;28;20043;-69
2023/12/09 05:51:32;;;;;;;29.25;7.57;;;;;;;-146.27;89.24;33247.72;5105949;28;20028;-70
2023/12/09 05:53:57;;;;;;;28.75;6.20;;;;;;;-146.27;88.67;33313.19;5099982;28;20020;-70
2023/12/09 05:56:22;;;;;;;19.98;6.88;;;;;;;-146.27;88.66;33255.66;5093678;28;20526;-70
2023/12/09 05:58:48;;;;;;;29.67;7.93;;;;;;;-146.27;88.51;33263.59;5092903;28;20111;-68
2023/12/09 06:01:13;;;;;;;29.10;7.30;;;;;;;-146.27;88.99;33329.06;5092910;28;20062;-68
2023/12/09 06:03:39;;;;;;;23.55;6.97;;;;;;;-146.27;89.24;33307.25;5103669;28;20023;-68
2023/12/09 06:06:04;;;;;;;19.80;8.05;;;;;;;-146.27;89.48;33277.50;5103044;28;20102;-68
2023/12/09 06:08:30;;;;;;;27.13;9.57;;;;;;;-146.27;89.74;33307.25;5100561;28;20024;-69
2023/12/09 06:10:55;;;;;;;38.38;10.68;;;;;;;-146.27;89.07;33317.16;5104419;28;20062;-70
2023/12/09 06:13:20;;;;;;;31.15;10.23;;;;;;;-146.27;89.27;33251.69;5100622;28;20452;-69
2023/12/09 06:15:46;;;;;;;29.15;10.25;;;;;;;-146.27;88.94;33255.66;5105927;28;20414;-68
2023/12/09 06:18:11;;;;;;;32.70;9.27;;;;;;;-146.27;90.57;33386.63;5093698;28;20545;-69
2023/12/09 06:20:36;;;;;;;37.42;11.40;;;;;;;-146.27;90.32;33323.13;5100784;28;20035;-69
2023/12/09 06:23:02;;;;;;;32.35;10.98;;;;;;;-146.27;90.47;33342.97;5111473;28;20038;-69
2023/12/09 06:25:27;;;;;;;37.45;12.85;;;;;;;-146.27;89.67;33287.41;5092273;28;20040;-69
2023/12/09 06:27:53;;;;;;;39.30;13.85;;;;;;;-146.27;89.54;33269.56;5101658;28;20110;-69
2023/12/09 06:30:18;;;;;;;55.70;15.23;;;;;;;-146.27;89.24;33202.09;5078346;28;20075;-69
2023/12/09 06:32:43;;;;;;;45.05;14.60;;;;;;;-146.27;88.72;33219.94;5084986;28;20028;-70
2023/12/09 06:35:09;;;;;;;41.05;14.43;;;;;;;-146.27;88.99;33255.66;5097383;28;20067;-69
2023/12/09 06:37:34;;;;;;;41.08;17.45;;;;;;;-146.27;88.75;33210.03;5072606;28;20085;-70
2023/12/09 06:40:00;;;;;;;44.97;15.60;;;;;;;-146.27;88.19;33172.34;5099505;28;20024;-69
2023/12/09 06:42:25;;;;;;;45.60;15.27;;;;;;;-146.27;88.72;33299.31;5110446;28;20031;-69
2023/12/09 06:44:50;;;;;;;37.70;16.60;;;;;;;-146.27;89.70;33317.16;5100486;28;20024;-69
2023/12/09 06:47:16;;;;;;;44.17;15.98;;;;;;;-146.27;89.44;33243.75;5095706;28;20143;-69
2023/12/09 06:49:42;;;;;;;44.90;16.15;;;;;;;-146.27;88.62;33219.94;5103727;28;20118;-68
2023/12/09 06:52:07;;;;;;;44.90;16.00;;;;;;;-146.27;89.26;33263.59;5104313;28;20027;-68
2023/12/09 06:54:32;;;;;;;45.53;15.75;;;;;;;-146.27;88.84;33267.56;5101558;28;20349;-68
2023/12/09 06:56:58;;;;;;;42.67;16.88;;;;;;;-146.27;89.68;33350.91;5095310;28;20023;-69
2023/12/09 06:59:23;;;;;;;41.10;16.23;;;;;;;-146.27;90.02;33342.97;5101691;28;20510;-69
2023/12/09 07:01:49;;;;;;;43.90;17.17;;;;;;;-146.27;89.26;33279.47;5096177;28;20504;-69
2023/12/09 07:04:18;;;;;;;44.58;17.90;;;;;;;-146.27;89.42;33303.28;5105397;28;20030;-70
2023/12/09 07:06:44;;;;;;;45.10;17.05;;;;;;;-146.27;88.92;33249.72;5102905;28;20024;-70
2023/12/09 07:09:09;;;;;;;48.97;17.27;;;;;;;-146.27;89.18;33217.97;5097920;28;20031;-70
2023/12/09 07:11:34;;;;;;;46.88;18.33;;;;;;;-146.27;88.41;33164.41;5099929;28;20024;-70
2023/12/09 07:14:00;;;;;;;46.75;18.73;;;;;;;-146.27;88.52;33237.81;5091451;28;20028;-70
2023/12/09 07:16:25;;;;;;;45.63;17.77;;;;;;;-146.27;89.55;33303.28;5094755;28;20111;-71
2023/12/09 07:18:50;;;;;;;51.03;19.05;;;;;;;-146.27;89.34;33293.38;5085993;28;20032;-69
2023/12/09 07:21:16;;;;;;;41.97;19.33;;;;;;;-146.27;89.60;33275.50;5101791;28;20044;-69
2023/12/09 07:23:43;;;;;;;51.08;20.00;;;;;;;-146.27;89.24;33237.81;5078823;28;20026;-69
2023/12/09 07:26:08;;;;;;;45.08;18.55;;;;;;;-146.27;88.67;33231.84;5091339;28;20109;-69
2023/12/09 07:28:34;;;;;;;49.78;19.13;;;;;;;-146.27;89.42;33259.63;5100739;28;20047;-69
2023/12/09 07:31:00;;;;;;;45.70;17.73;;;;;;;-146.27;90.32;33299.31;5108598;28;20038;-69
2023/12/09 07:33:25;;;;;;;47.30;19.60;;;;;;;-146.27;89.59;33245.75;5097749;28;20028;-69
2023/12/09 07:35:51;;;;;;;36.40;18.13;;;;;;;-146.27;89.53;33295.34;5091321;28;20115;-69
2023/12/09 07:38:17;;;;;;;48.97;19.70;;;;;;;-146.27;89.72;33273.53;5090941;28;20382;-69
2023/12/09 07:40:43;;;;;;;58.60;20.25;;;;;;;-146.27;89.00;33243.75;5097635;28;20031;-69
2023/12/09 07:43:09;;;;;;;51.72;18.38;;;;;;;-146.27;88.69;33225.91;5097796;28;20032;-68
2023/12/09 07:45:34;;;;;;;40.70;16.95;;;;;;;-146.27;88.74;33172.34;5108023;28;20498;-69
2023/12/09 07:48:01;;;;;;;42.08;17.77;;;;;;;-146.27;89.00;33215.97;5091371;28;20028;-71
2023/12/09 07:50:26;;;;;;;50.22;17.88;;;;;;;-146.27;88.62;33204.06;5094693;28;20488;-70
2023/12/09 07:52:51;;;;;;;39.95;16.27;;;;;;;-146.27;88.80;33255.66;5103604;28;20146;-70
2023/12/09 07:55:17;;;;;;;49.60;19.75;;;;;;;-146.27;89.83;33247.72;5092418;28;20024;-69
2023/12/09 07:57:42;;;;;;;48.33;17.25;;;;;;;-146.27;89.00;33217.97;5101156;28;20032;-69
2023/12/09 08:00:09;;;;;;;41.83;16.50;;;;;;;-146.27;88.27;33196.13;5109180;28;20386;-69
2023/12/09 08:02:35;;;;;;;44.10;16.05;;;;;;;-146.27;87.92;33184.25;5103486;28;20437;-69
2023/12/09 08:05:00;;;;;;;41.83;16.52;;;;;;;-146.27;88.43;33152.50;5091025;28;20049;-68
2023/12/09 08:07:25;;;;;;;46.80;15.27;;;;;;;-146.27;88.37;33108.84;5097220;28;20495;-69
2023/12/09 08:09:50;;;;;;;34.65;15.57;;;;;;;-146.27;88.08;33118.75;5102993;28;20494;-69
2023/12/09 08:12:16;;;;;;;40.97;15.20;;;;;;;-146.27;88.72;33198.13;5106635;28;20506;-70
2023/12/09 08:14:41;;;;;;;32.33;13.77;;;;;;;-146.27;88.40;33154.47;5107564;28;20035;-70
2023/12/09 08:17:06;;;;;;;43.45;15.43;;;;;;;-146.27;88.38;33219.94;5111172;28;20505;-71
2023/12/09 08:19:32;;;;;;;43.33;14.20;;;;;;;-146.27;88.26;33188.19;5095907;28;20464;-69
2023/12/09 08:21:57;;;;;;;38.30;14.68;;;;;;;-146.27;89.13;33204.06;5090669;28;20081;-69
2023/12/09 08:24:23;;;;;;;38.38;14.65;;;;;;;-146.27;88.35;33136.63;5090504;28;20023;-69
2023/12/09 08:26:48;;;;;;;33.55;13.80;;;;;;;-146.27;88.03;33132.66;5090202;28;20085;-70
2023/12/09 08:29:14;;;;;;;43.47;13.57;;;;;;;-146.27;88.26;33150.50;5100983;28;20075;-68
2023/12/09 08:31:49;;;;;;;34.78;15.38;;;;;;;-146.27;88.28;33096.94;5072380;28;20027;-69
2023/12/09 08:34:18;;;;;;;40.70;13.15;;;;;;;-146.27;88.46;33098.94;5096054;28;20438;-69
2023/12/09 08:36:44;;;;;;;30.20;12.25;;;;;;;-146.27;88.76;33150.50;5105199;28;20561;-69
2023/12/09 08:39:09;;;;;;;38.05;13.07;;;;;;;-146.27;88.73;33134.63;5101769;28;20016;-69
2023/12/09 08:41:35;;;;;;;31.85;11.95;;;;;;;-146.27;88.08;33104.88;5090490;28;20490;-69
2023/12/09 08:44:02;;;;;;;27.08;11.13;;;;;;;-146.27;88.21;33118.75;5091609;28;20031;-69
2023/12/09 08:46:28;;;;;;;32.10;12.23;;;;;;;-146.27;88.04;33100.91;5090468;28;20044;-70
2023/12/09 08:48:53;;;;;;;37.03;11.68;;;;;;;-146.27;87.51;33047.34;5092662;28;20095;-70
2023/12/09 08:51:19;;;;;;;26.00;10.43;;;;;;;-146.27;87.26;33045.34;5093842;28;20024;-70
2023/12/09 08:53:44;;;;;;;24.35;11.18;;;;;;;-146.27;87.34;33049.31;5098890;28;20019;-70
2023/12/09 08:56:10;;;;;;;28.02;10.57;;;;;;;-146.27;87.80;33100.91;5094572;28;20027;-71
2023/12/09 08:58:35;;;;;;;33.35;9.80;;;;;;;-146.27;87.08;33045.34;5096384;28;20032;-70
2023/12/09 09:01:00;;;;;;;31.90;10.15;;;;;;;-146.27;87.21;33021.53;5096035;28;20030;-71
2023/12/09 09:03:26;;;;;;;30.35;9.18;;;;;;;-146.27;88.55;33120.75;5097649;28;20020;-70
2023/12/09 09:05:51;;;;;;;26.73;9.27;;;;;;;-146.27;87.86;33081.06;5078550;28;20034;-69
2023/12/09 09:08:17;;;;;;;34.15;9.48;;;;;;;-146.27;87.43;33023.53;5107276;28;20023;-71
2023/12/09 09:10:43;;;;;;;40.25;8.60;;;;;;;-146.27;87.22;32981.88;5092038;28;20058;-71
2023/12/09 09:13:08;;;;;;;34.35;8.18;;;;;;;-146.27;87.13;33029.47;5090061;28;20523;-70
2023/12/09 09:15:33;;;;;;;23.48;8.73;;;;;;;-146.27;87.38;33023.53;5091253;28;20040;-68
2023/12/09 09:17:59;;;;;;;27.17;8.25;;;;;;;-146.27;87.69;33041.38;5094190;28;20023;-69
2023/12/09 09:20:24;;;;;;;20.80;7.03;;;;;;;-146.27;87.88;33037.41;5099578;28;20106;-70
2023/12/09 09:22:50;;;;;;;25.40;7.45;;;;;;;-146.27;87.43;33041.38;5106460;28;20027;-70
2023/12/09 09:25:15;;;;;;;20.20;6.60;;;;;;;-146.27;87.32;32932.28;5094140;28;20028;-69
2023/12/09 09:27:41;;;;;;;27.30;7.60;;;;;;;-146.27;87.97;33049.31;5093245;28;20527;-69
2023/12/09 09:30:07;;;;;;;21.73;5.47;;;;;;;-146.27;88.03;33061.22;5094215;28;20060;-69
2023/12/09 09:32:32;;;;;;;27.23;6.13;;;;;;;-146.27;87.13;32985.84;5091577;28;20028;-69
2023/12/09 09:34:57;;;;;;;19.63;5.05;;;;;;;-146.27;87.18;32987.81;5106135;28;20019;-69
2023/12/09 09:37:23;;;;;;;23.33;5.20;;;;;;;-146.27;87.47;33053.28;5089169;28;20410;-69
2023/12/09 09:39:48;;;;;;;25.63;5.38;;;;;;;-146.27;87.21;32922.34;5097768;28;20037;-69
2023/12/09 09:42:32;;;;;;;25.67;5.38;;;;;;;-146.27;86.75;32971.94;5104460;28;20028;-69
2023/12/09 09:45:14;;;;;;;27.02;4.78;;;;;;;-146.27;86.59;32902.50;5091988;28;20031;-70
2023/12/09 09:47:41;;;;;;;24.38;5.13;;;;;;;-146.27;86.26;32920.38;5090736;28;20024;-70
2023/12/09 09:50:08;;;;;;;19.75;4.78;;;;;;;-146.27;86.25;32920.38;5095739;28;20026;-69
2023/12/09 09:52:40;;;;;;;24.50;4.82;;;;;;;-146.27;86.13;32890.59;5094326;28;20455;-69
2023/12/09 09:55:07;;;;;;;19.35;5.20;;;;;;;-146.27;86.41;32932.28;5094873;28;20032;-70
2023/12/09 09:57:33;;;;;;;19.75;3.97;;;;;;;-146.27;86.31;32940.22;5103862;28;20031;-70
2023/12/09 09:59:59;;;;;;;20.30;4.68;;;;;;;-146.27;86.25;32890.59;5103670;28;20032;-70
2023/12/09 10:02:26;;;;;;;13.82;4.28;;;;;;;-146.27;85.97;32850.94;5103281;28;20036;-70
2023/12/09 10:04:52;;;;;;;23.27;4.15;;;;;;;-146.27;85.99;32866.81;5091190;28;20110;-70
2023/12/09 10:07:18;;;;;;;20.00;3.92;;;;;;;-146.27;85.41;32854.91;5101021;28;20027;-69
2023/12/09 10:09:44;;;;;;;18.58;5.35;;;;;;;-146.27;85.36;32860.84;5098890;28;20038;-68
2023/12/09 10:12:09;;;;;;;16.73;4.18;;;;;;;-146.27;85.76;32850.94;5108001;27;20110;-68
2023/12/09 10:14:35;;;;;;;25.30;4.72;;;;;;;-146.27;85.37;32846.97;5099222;27;20028;-70
2023/12/09 10:17:01;;;;;;;22.70;4.30;;;;;;;-146.27;85.24;32811.25;5094885;27;20051;-70
2023/12/09 10:19:26;;;;;;;20.67;3.92;;;;;;;-146.27;85.75;32950.13;5099726;28;20035;-70
2023/12/09 10:21:51;;;;;;;19.85;4.10;;;;;;;-146.27;85.51;32870.78;5095563;28;20380;-72
2023/12/09 10:24:17;;;;;;;14.13;4.10;;;;;;;-146.27;85.45;32843.00;5092939;28;20395;-71
2023/12/09 10:26:43;;;;;;;15.48;4.05;;;;;;;-146.27;86.44;32944.19;5107673;28;20439;-71
2023/12/09 10:29:10;;;;;;;12.57;3.78;;;;;;;-146.27;85.39;32862.84;5104885;28;20044;-71
2023/12/09 10:31:36;;;;;;;16.08;4.05;;;;;;;-146.27;85.35;32841.00;5094018;28;20154;-70
2023/12/09 10:34:02;;;;;;;19.08;4.05;;;;;;;-146.27;85.43;32866.81;5102826;28;20114;-71
2023/12/09 10:36:29;;;;;;;14.57;3.70;;;;;;;-146.27;85.29;32823.16;5100043;28;20042;-69
2023/12/09 10:38:56;;;;;;;18.35;3.40;;;;;;;-146.27;85.10;32779.50;5096089;28;20032;-70
2023/12/09 10:41:23;;;;;;;19.98;4.15;;;;;;;-146.27;85.94;32795.38;5096814;28;20026;-70
2023/12/09 10:43:48;;;;;;;19.17;4.57;;;;;;;-146.27;85.65;32854.91;5104205;28;20024;-69
2023/12/09 10:46:14;;;;;;;16.67;3.45;;;;;;;-146.27;85.26;32821.16;5082572;28;20567;-68
2023/12/09 10:48:41;;;;;;;12.38;3.60;;;;;;;-146.27;84.88;32751.75;5096539;28;20833;-70
2023/12/09 10:51:07;;;;;;;14.93;3.05;;;;;;;-146.27;85.45;32811.25;5097539;28;20058;-70
2023/12/09 10:53:32;;;;;;;11.88;3.15;;;;;;;-146.27;85.31;32731.91;5101719;28;20024;-69
2023/12/09 10:55:58;;;;;;;13.57;2.70;;;;;;;-146.27;86.12;32850.94;5101738;28;20027;-69
2023/12/09 10:58:24;;;;;;;15.25;3.47;;;;;;;-146.27;86.24;32874.75;5098082;28;20115;-69
2023/12/09 11:00:51;;;;;;;11.68;3.00;;;;;;;-146.27;86.10;32839.03;5083397;28;20032;-70